KDVP

Slayton Municipal Airport

Slayton, Minnesota, USA
METAR KDVP 171144Z AUTO 00000KT 10SM CLR M06/M11 A3024 RMK AO2 T10631109
Observed Flight Rules
Dec-17 @ 11:44 UTC (3 hours ago) Visual Flight Rules
Visibility Clouds
10 miles
  • Clear skies
Temperatures Readings
Current -6°C / 21°F
Dewpoint -11°C / 12°F
Humidity 68%
Altimeter 30.24" Hg
Pressure 1024 hPa
Elevation 495
METAR KDVP 171144Z AUTO 00000KT 10SM CLR M06/M11 A3024 RMK AO2 T10631109
Observed Flight Rules
Dec-17 @ 11:44 UTC
(3 hours ago)
VFR
Clouds
  • Clear skies
Temperature Dewpoint
-6°C / 21°F -11°C / 12°F
Humidity Altimeter Pressure
68% 30.24" Hg 1024 hPa